Time;durP1;ratioP1;P1;durP2;ratioP2;P2;SDS_P1;SDS_P2;PMS_P1;PMS_P2;Temp;Humidity;BMP_temperature;BMP_pressure;BME280_temperature;BME280_humidity;BME280_pressure;Samples;Min_cycle;Max_cycle;Signal;HPM_P1;HPM_P2
2023/11/15 00:02:06;;;;;;;;;4.00;3.00;;;;;;;;5055757;28;46411;-74
2023/11/15 00:04:31;;;;;;;;;10.00;1.00;;;;;;;;5048753;28;45454;-75
2023/11/15 00:06:57;;;;;;;;;3.00;0.67;;;;;;;;5050900;28;45428;-74
2023/11/15 00:09:22;;;;;;;;;5.67;2.00;;;;;;;;5054333;28;45617;-73
2023/11/15 00:11:49;;;;;;;;;4.33;2.00;;;;;;;;5056209;28;45670;-73
2023/11/15 00:14:14;;;;;;;;;2.67;1.00;;;;;;;;5055637;28;45456;-73
2023/11/15 00:16:39;;;;;;;;;2.33;1.00;;;;;;;;5056385;28;45402;-74
2023/11/15 00:19:07;;;;;;;;;3.00;1.67;;;;;;;;5054549;28;45648;-76
2023/11/15 00:21:32;;;;;;;;;2.00;0.00;;;;;;;;5057212;28;47695;-74
2023/11/15 00:23:57;;;;;;;;;4.00;1.00;;;;;;;;5047965;28;45501;-73
2023/11/15 00:26:24;;;;;;;;;2.00;2.00;;;;;;;;5055646;28;45335;-76
2023/11/15 00:28:49;;;;;;;;;2.00;1.00;;;;;;;;5056792;28;45580;-73
2023/11/15 00:31:15;;;;;;;;;2.00;1.00;;;;;;;;5045944;28;45675;-73
2023/11/15 00:33:40;;;;;;;;;10.33;2.00;;;;;;;;5051764;28;45295;-73
2023/11/15 00:36:08;;;;;;;;;2.33;1.00;;;;;;;;5050537;28;45422;-73
2023/11/15 00:38:35;;;;;;;;;3.67;1.00;;;;;;;;5057869;28;45465;-75
2023/11/15 00:41:01;;;;;;;;;2.33;1.00;;;;;;;;5054304;28;47316;-74
2023/11/15 00:43:26;;;;;;;;;3.33;1.67;;;;;;;;5049999;28;45294;-73
2023/11/15 00:45:51;;;;;;;;;6.67;1.00;;;;;;;;5050143;28;45544;-74
2023/11/15 00:48:16;;;;;;;;;2.33;1.00;;;;;;;;5050745;28;45493;-73
2023/11/15 00:50:41;;;;;;;;;3.00;1.00;;;;;;;;5052432;28;45621;-73
2023/11/15 00:53:08;;;;;;;;;4.00;1.00;;;;;;;;5054906;28;45367;-73
2023/11/15 00:55:33;;;;;;;;;4.00;1.00;;;;;;;;5050132;28;45382;-73
2023/11/15 00:57:59;;;;;;;;;1.75;1.00;;;;;;;;5050007;28;45541;-73
2023/11/15 01:00:25;;;;;;;;;2.00;0.00;;;;;;;;5055190;28;46635;-76
2023/11/15 01:02:51;;;;;;;;;0.00;0.00;;;;;;;;5050369;28;45292;-73
2023/11/15 01:05:18;;;;;;;;;1.00;1.00;;;;;;;;5052050;28;45489;-73
2023/11/15 01:07:43;;;;;;;;;3.00;1.00;;;;;;;;5051056;28;45326;-73
2023/11/15 01:10:09;;;;;;;;;1.00;0.00;;;;;;;;5050466;28;45470;-74
2023/11/15 01:12:34;;;;;;;;;1.00;1.00;;;;;;;;5044540;28;45485;-74
2023/11/15 01:15:00;;;;;;;;;6.33;2.67;;;;;;;;5056850;28;45378;-74
2023/11/15 01:17:25;;;;;;;;;5.00;0.67;;;;;;;;5042539;28;45411;-72
2023/11/15 01:19:50;;;;;;;;;3.00;1.00;;;;;;;;5048960;28;45537;-74
2023/11/15 01:22:15;;;;;;;;;3.00;2.00;;;;;;;;5054539;28;45472;-73
2023/11/15 01:24:41;;;;;;;;;2.67;1.00;;;;;;;;5047059;28;45563;-74
2023/11/15 01:27:06;;;;;;;;;3.00;1.00;;;;;;;;5052205;28;45291;-73
2023/11/15 01:29:32;;;;;;;;;4.00;1.00;;;;;;;;5055246;28;45477;-73
2023/11/15 01:31:57;;;;;;;;;3.00;1.00;;;;;;;;5046646;28;45426;-74
2023/11/15 01:34:23;;;;;;;;;4.67;1.00;;;;;;;;5053720;28;45368;-74
2023/11/15 01:36:48;;;;;;;;;1.00;1.00;;;;;;;;5055895;28;45481;-76
2023/11/15 01:39:16;;;;;;;;;3.00;2.00;;;;;;;;5056037;28;46566;-76
2023/11/15 01:41:47;;;;;;;;;4.67;1.00;;;;;;;;5055304;28;45358;-73
2023/11/15 01:44:13;;;;;;;;;4.00;1.33;;;;;;;;5052839;28;45436;-74
2023/11/15 01:46:38;;;;;;;;;2.67;1.00;;;;;;;;5056092;28;45406;-73
2023/11/15 01:49:03;;;;;;;;;6.00;1.00;;;;;;;;5043694;28;45717;-73
2023/11/15 01:51:28;;;;;;;;;0.00;0.00;;;;;;;;5052484;28;45370;-75
2023/11/15 01:53:54;;;;;;;;;6.33;1.00;;;;;;;;5049004;28;45673;-73
2023/11/15 01:56:19;;;;;;;;;1.00;1.00;;;;;;;;5049726;28;45583;-73
2023/11/15 01:58:44;;;;;;;;;0.00;0.00;;;;;;;;5053209;28;46651;-73
2023/11/15 02:01:10;;;;;;;;;4.00;2.00;;;;;;;;5052727;28;45532;-74
2023/11/15 02:03:36;;;;;;;;;4.00;1.00;;;;;;;;5045488;28;45501;-73
2023/11/15 02:06:02;;;;;;;;;2.00;0.33;;;;;;;;5048697;28;45413;-74
2023/11/15 02:08:27;;;;;;;;;2.67;0.00;;;;;;;;5050087;28;45339;-73
2023/11/15 02:10:52;;;;;;;;;1.00;0.00;;;;;;;;5054733;28;45343;-74
2023/11/15 02:13:25;;;;;;;;;7.00;2.00;;;;;;;;5053624;28;46039;-75
2023/11/15 02:15:52;;;;;;;;;2.67;1.00;;;;;;;;5048420;28;45518;-74
2023/11/15 02:18:17;;;;;;;;;2.00;1.00;;;;;;;;5047443;28;47287;-73
2023/11/15 02:20:42;;;;;;;;;5.67;1.00;;;;;;;;5047987;28;45263;-73
2023/11/15 02:23:08;;;;;;;;;2.00;0.00;;;;;;;;5052775;28;45299;-73
2023/11/15 02:25:33;;;;;;;;;1.67;1.00;;;;;;;;5046917;28;45347;-73
2023/11/15 02:28:00;;;;;;;;;3.67;0.00;;;;;;;;5050262;28;46352;-73
2023/11/15 02:30:25;;;;;;;;;2.33;1.00;;;;;;;;5047610;28;47306;-75
2023/11/15 02:32:50;;;;;;;;;3.67;0.00;;;;;;;;5054939;28;45412;-73
2023/11/15 02:35:15;;;;;;;;;3.67;1.33;;;;;;;;5054247;28;45436;-73
2023/11/15 02:37:41;;;;;;;;;3.00;2.00;;;;;;;;5049705;28;46540;-73
2023/11/15 02:40:11;;;;;;;;;2.00;0.00;;;;;;;;5055397;28;45381;-74
2023/11/15 02:42:36;;;;;;;;;4.67;1.00;;;;;;;;5047204;28;45478;-74
2023/11/15 02:45:01;;;;;;;;;3.00;2.33;;;;;;;;5051539;28;45721;-73
2023/11/15 02:47:27;;;;;;;;;4.67;1.00;;;;;;;;5050829;28;46406;-73
2023/11/15 02:49:53;;;;;;;;;5.00;0.33;;;;;;;;5055356;28;45448;-75
2023/11/15 02:52:18;;;;;;;;;4.00;1.00;;;;;;;;5053008;28;45426;-75
2023/11/15 02:54:43;;;;;;;;;2.67;1.33;;;;;;;;5045022;28;45482;-75
2023/11/15 02:57:08;;;;;;;;;1.33;1.00;;;;;;;;5051737;28;46539;-73
2023/11/15 02:59:34;;;;;;;;;1.67;1.00;;;;;;;;5052836;28;45327;-75
2023/11/15 03:01:59;;;;;;;;;5.00;1.00;;;;;;;;5048371;28;45382;-74
2023/11/15 03:04:24;;;;;;;;;2.33;1.33;;;;;;;;5054669;28;45342;-76
2023/11/15 03:06:49;;;;;;;;;5.67;2.00;;;;;;;;5047153;28;45512;-73
2023/11/15 03:09:14;;;;;;;;;1.00;0.00;;;;;;;;5048754;28;45789;-74
2023/11/15 03:11:40;;;;;;;;;1.00;1.00;;;;;;;;5053778;28;45489;-75
2023/11/15 03:14:05;;;;;;;;;2.67;0.00;;;;;;;;5049015;28;45737;-73
2023/11/15 03:16:30;;;;;;;;;1.00;1.00;;;;;;;;5049475;28;45529;-74
2023/11/15 03:18:55;;;;;;;;;3.00;1.00;;;;;;;;5046677;28;45462;-74
2023/11/15 03:21:21;;;;;;;;;3.00;2.00;;;;;;;;5049988;28;45527;-73
2023/11/15 03:23:46;;;;;;;;;5.00;1.00;;;;;;;;5053499;28;45442;-73
2023/11/15 03:26:11;;;;;;;;;3.67;0.00;;;;;;;;5050808;28;45636;-74
2023/11/15 03:28:37;;;;;;;;;0.00;0.00;;;;;;;;5047314;28;45510;-73
2023/11/15 03:31:02;;;;;;;;;3.67;0.67;;;;;;;;5041318;28;46313;-74
2023/11/15 03:33:28;;;;;;;;;1.00;0.00;;;;;;;;5054216;28;45332;-75
2023/11/15 03:35:53;;;;;;;;;3.00;0.33;;;;;;;;5049252;28;46899;-74
2023/11/15 03:38:19;;;;;;;;;1.00;0.00;;;;;;;;5058433;28;47125;-75
2023/11/15 03:40:44;;;;;;;;;5.00;1.00;;;;;;;;5056504;28;45551;-75
2023/11/15 03:43:09;;;;;;;;;1.00;1.00;;;;;;;;5047449;28;46421;-74
2023/11/15 03:45:34;;;;;;;;;8.33;2.00;;;;;;;;5052736;28;46329;-75
2023/11/15 03:48:02;;;;;;;;;4.00;1.33;;;;;;;;5051455;28;45256;-74
2023/11/15 03:50:27;;;;;;;;;1.33;1.00;;;;;;;;5049505;28;45439;-74
2023/11/15 03:52:54;;;;;;;;;5.33;1.00;;;;;;;;5050364;28;45468;-73
2023/11/15 03:55:19;;;;;;;;;3.33;1.00;;;;;;;;5052957;28;47389;-74
2023/11/15 03:57:46;;;;;;;;;4.00;1.00;;;;;;;;5044692;28;45451;-74
2023/11/15 04:00:11;;;;;;;;;3.67;0.33;;;;;;;;5055090;28;45524;-73
2023/11/15 04:02:37;;;;;;;;;2.67;0.67;;;;;;;;5057310;28;45354;-74
2023/11/15 04:05:03;;;;;;;;;1.00;1.00;;;;;;;;5044593;28;46218;-74
2023/11/15 04:07:29;;;;;;;;;0.00;0.00;;;;;;;;5048462;28;45399;-75
2023/11/15 04:09:54;;;;;;;;;2.33;1.00;;;;;;;;5053500;28;45542;-73
2023/11/15 04:12:20;;;;;;;;;2.33;1.00;;;;;;;;5056538;28;45404;-76
2023/11/15 04:14:45;;;;;;;;;2.33;0.67;;;;;;;;5046401;28;46616;-75
2023/11/15 04:17:10;;;;;;;;;3.00;1.00;;;;;;;;5050772;28;45454;-73
2023/11/15 04:19:35;;;;;;;;;6.00;1.00;;;;;;;;5057393;28;45178;-74
2023/11/15 04:22:01;;;;;;;;;2.00;0.67;;;;;;;;5057900;28;45461;-75
2023/11/15 04:24:27;;;;;;;;;6.67;1.67;;;;;;;;5045994;28;45963;-73
2023/11/15 04:26:52;;;;;;;;;2.00;1.00;;;;;;;;5054897;28;45465;-74
2023/11/15 04:29:18;;;;;;;;;0.00;0.00;;;;;;;;5042125;28;45383;-73
2023/11/15 04:31:44;;;;;;;;;3.00;0.00;;;;;;;;5053517;28;45243;-75
2023/11/15 04:34:09;;;;;;;;;3.00;0.33;;;;;;;;5057111;28;46673;-73
2023/11/15 04:36:35;;;;;;;;;2.67;0.00;;;;;;;;5056919;28;45450;-73
2023/11/15 04:39:00;;;;;;;;;4.00;1.00;;;;;;;;5047987;28;45453;-76
2023/11/15 04:41:25;;;;;;;;;0.00;0.00;;;;;;;;5053570;28;45719;-74
2023/11/15 04:43:51;;;;;;;;;2.00;1.00;;;;;;;;5052664;28;46619;-74
2023/11/15 04:46:16;;;;;;;;;2.00;0.00;;;;;;;;5051244;28;45471;-76
2023/11/15 04:48:42;;;;;;;;;2.67;0.00;;;;;;;;5045548;28;45419;-75
2023/11/15 04:51:07;;;;;;;;;7.33;0.00;;;;;;;;5047792;28;45371;-73
2023/11/15 04:53:32;;;;;;;;;4.67;1.00;;;;;;;;5049265;28;45432;-73
2023/11/15 04:55:57;;;;;;;;;3.33;0.00;;;;;;;;5046919;28;45533;-74
2023/11/15 04:58:22;;;;;;;;;2.00;0.33;;;;;;;;5051096;28;45334;-73
2023/11/15 05:00:48;;;;;;;;;1.33;0.67;;;;;;;;5048745;28;45282;-73
2023/11/15 05:03:13;;;;;;;;;3.00;2.00;;;;;;;;5051203;28;46335;-74
2023/11/15 05:05:38;;;;;;;;;4.33;1.33;;;;;;;;5046917;28;45429;-74
2023/11/15 05:08:04;;;;;;;;;3.00;0.00;;;;;;;;5054928;28;45296;-73
2023/11/15 05:10:29;;;;;;;;;3.00;2.00;;;;;;;;5052651;28;45378;-73
2023/11/15 05:12:54;;;;;;;;;3.00;1.00;;;;;;;;5051174;28;47410;-76
2023/11/15 05:15:20;;;;;;;;;7.67;2.00;;;;;;;;5056626;28;45549;-73
2023/11/15 05:17:45;;;;;;;;;2.00;1.00;;;;;;;;5051647;28;46646;-73
2023/11/15 05:20:10;;;;;;;;;2.00;1.00;;;;;;;;5048687;28;45684;-74
2023/11/15 05:22:36;;;;;;;;;3.33;0.00;;;;;;;;5044712;28;47333;-75
2023/11/15 05:25:01;;;;;;;;;6.00;1.00;;;;;;;;5050040;28;45431;-73
2023/11/15 05:27:26;;;;;;;;;3.00;0.00;;;;;;;;5049315;28;45498;-73
2023/11/15 05:29:51;;;;;;;;;1.67;0.00;;;;;;;;5046451;28;45428;-75
2023/11/15 05:32:16;;;;;;;;;1.00;1.00;;;;;;;;5050792;28;45912;-74
2023/11/15 05:34:41;;;;;;;;;5.33;1.67;;;;;;;;5052138;28;45337;-73
2023/11/15 05:37:07;;;;;;;;;5.00;1.00;;;;;;;;5052013;28;45164;-74
2023/11/15 05:39:32;;;;;;;;;1.00;1.00;;;;;;;;5038724;28;45321;-73
2023/11/15 05:41:57;;;;;;;;;0.00;0.00;;;;;;;;5047127;28;45382;-75
2023/11/15 05:44:23;;;;;;;;;2.33;1.33;;;;;;;;5048216;28;45283;-73
2023/11/15 05:46:48;;;;;;;;;2.67;1.00;;;;;;;;5050048;28;45540;-73
2023/11/15 05:49:14;;;;;;;;;5.00;2.00;;;;;;;;5055314;28;45673;-73
2023/11/15 05:51:40;;;;;;;;;1.00;1.00;;;;;;;;5050528;28;46194;-74
2023/11/15 05:54:05;;;;;;;;;1.67;1.00;;;;;;;;5044611;28;45492;-73
2023/11/15 05:56:31;;;;;;;;;3.67;1.00;;;;;;;;5049638;28;45512;-73
2023/11/15 05:58:56;;;;;;;;;5.33;2.00;;;;;;;;5043855;28;45369;-73
2023/11/15 06:01:21;;;;;;;;;4.00;0.00;;;;;;;;5048497;28;46512;-73
2023/11/15 06:03:48;;;;;;;;;4.00;1.00;;;;;;;;5045620;28;45569;-73
2023/11/15 06:06:13;;;;;;;;;3.33;0.67;;;;;;;;5050567;28;45568;-74
2023/11/15 06:08:38;;;;;;;;;2.00;1.00;;;;;;;;5053614;28;45512;-74
2023/11/15 06:11:04;;;;;;;;;5.67;2.00;;;;;;;;5036612;28;46931;-74
2023/11/15 06:13:29;;;;;;;;;5.67;0.33;;;;;;;;5047384;28;45570;-72
2023/11/15 06:15:54;;;;;;;;;3.67;2.00;;;;;;;;5053820;28;45529;-73
2023/11/15 06:18:19;;;;;;;;;1.67;1.67;;;;;;;;5054519;28;46518;-71
2023/11/15 06:20:44;;;;;;;;;6.67;1.00;;;;;;;;5051278;28;46517;-73
2023/11/15 06:23:10;;;;;;;;;0.67;0.67;;;;;;;;5053584;28;45715;-72
2023/11/15 06:25:36;;;;;;;;;2.00;1.00;;;;;;;;5054586;28;45429;-73
2023/11/15 06:28:03;;;;;;;;;2.00;1.00;;;;;;;;5055122;28;45350;-73
2023/11/15 06:30:29;;;;;;;;;1.33;1.33;;;;;;;;5046047;28;47447;-72
2023/11/15 06:32:54;;;;;;;;;2.00;1.00;;;;;;;;5052571;28;45513;-72
2023/11/15 06:35:19;;;;;;;;;4.00;2.00;;;;;;;;5054416;28;45580;-72
2023/11/15 06:37:46;;;;;;;;;2.00;0.67;;;;;;;;5050788;28;45482;-72
2023/11/15 06:40:13;;;;;;;;;5.33;1.33;;;;;;;;5053475;28;45807;-72
2023/11/15 06:42:39;;;;;;;;;2.00;0.67;;;;;;;;5054395;28;45377;-72
2023/11/15 06:45:04;;;;;;;;;2.00;1.00;;;;;;;;5052793;28;45306;-72
2023/11/15 06:47:29;;;;;;;;;2.67;2.67;;;;;;;;5049853;28;45541;-71
2023/11/15 06:49:54;;;;;;;;;6.67;1.33;;;;;;;;5034811;28;46465;-72
2023/11/15 06:52:20;;;;;;;;;2.33;1.00;;;;;;;;5041680;28;45350;-72
2023/11/15 06:54:46;;;;;;;;;1.67;1.00;;;;;;;;5039048;28;45591;-73
2023/11/15 06:57:11;;;;;;;;;2.00;1.00;;;;;;;;5035182;28;45503;-73
2023/11/15 06:59:36;;;;;;;;;2.67;1.00;;;;;;;;5039937;28;46404;-74
2023/11/15 07:02:06;;;;;;;;;4.00;1.00;;;;;;;;5050164;28;45403;-72
2023/11/15 07:04:31;;;;;;;;;3.33;3.00;;;;;;;;5047263;28;45548;-73
2023/11/15 07:06:56;;;;;;;;;3.33;2.00;;;;;;;;5054469;28;45589;-74
2023/11/15 07:09:21;;;;;;;;;8.33;1.00;;;;;;;;5054278;28;46601;-74
2023/11/15 07:11:47;;;;;;;;;5.33;3.00;;;;;;;;5057020;28;45932;-71
2023/11/15 07:14:15;;;;;;;;;3.00;0.00;;;;;;;;5056716;28;45508;-70
2023/11/15 07:16:55;;;;;;;;;2.00;1.00;;;;;;;;5053484;28;45493;-69
2023/11/15 07:19:20;;;;;;;;;5.33;2.00;;;;;;;;5058393;28;47605;-71
2023/11/15 07:21:45;;;;;;;;;1.67;1.00;;;;;;;;5056418;28;45513;-69
2023/11/15 07:24:12;;;;;;;;;3.67;2.00;;;;;;;;5050252;28;45777;-71
2023/11/15 07:26:38;;;;;;;;;3.00;1.00;;;;;;;;5057240;28;45568;-71
2023/11/15 07:29:06;;;;;;;;;8.33;1.67;;;;;;;;5044926;28;45569;-69
2023/11/15 07:31:31;;;;;;;;;2.00;1.00;;;;;;;;5045287;28;45547;-71
2023/11/15 07:33:56;;;;;;;;;1.33;1.00;;;;;;;;5055824;28;45590;-70
2023/11/15 07:36:22;;;;;;;;;4.00;1.00;;;;;;;;5054250;28;45439;-70
2023/11/15 07:38:47;;;;;;;;;2.33;1.00;;;;;;;;5047028;28;46165;-70
2023/11/15 07:41:12;;;;;;;;;1.67;1.33;;;;;;;;5053326;28;45461;-70
2023/11/15 07:43:38;;;;;;;;;3.33;0.00;;;;;;;;5057334;28;45512;-70
2023/11/15 07:46:08;;;;;;;;;2.67;2.00;;;;;;;;5050427;28;45411;-71
2023/11/15 07:48:34;;;;;;;;;1.33;1.00;;;;;;;;5153640;22;46958;-70
2023/11/15 07:51:03;;;;;;;;;3.00;2.00;;;;;;;;5048771;28;45518;-69
2023/11/15 07:53:29;;;;;;;;;6.00;1.33;;;;;;;;5054733;28;45541;-68
2023/11/15 07:55:54;;;;;;;;;1.67;1.67;;;;;;;;5052237;28;45579;-71
2023/11/15 07:58:20;;;;;;;;;3.00;1.00;;;;;;;;5056327;28;45453;-68
2023/11/15 08:00:45;;;;;;;;;5.00;3.00;;;;;;;;5047449;28;45509;-69
2023/11/15 08:03:12;;;;;;;;;2.00;2.00;;;;;;;;5052940;28;45575;-67
2023/11/15 08:05:37;;;;;;;;;4.00;1.33;;;;;;;;5049012;28;45557;-70
2023/11/15 08:08:03;;;;;;;;;6.33;2.67;;;;;;;;5052644;28;45644;-68
2023/11/15 08:10:30;;;;;;;;;4.33;2.00;;;;;;;;5051282;28;45730;-68
2023/11/15 08:12:56;;;;;;;;;9.67;2.00;;;;;;;;5049348;28;45536;-69
2023/11/15 08:15:21;;;;;;;;;3.00;1.67;;;;;;;;5053030;28;46978;-69
2023/11/15 08:17:46;;;;;;;;;2.67;1.00;;;;;;;;5050532;28;45414;-69
2023/11/15 08:20:12;;;;;;;;;5.00;2.00;;;;;;;;5051525;28;45520;-68
2023/11/15 08:22:38;;;;;;;;;2.67;1.00;;;;;;;;5050428;28;45435;-69
2023/11/15 08:25:09;;;;;;;;;8.00;2.33;;;;;;;;5052908;28;45425;-69
2023/11/15 08:27:35;;;;;;;;;9.67;1.33;;;;;;;;5053103;27;46706;-68
2023/11/15 08:30:02;;;;;;;;;4.33;3.00;;;;;;;;5052196;28;45476;-69
2023/11/15 08:32:29;;;;;;;;;7.00;2.67;;;;;;;;5052889;28;45475;-68
2023/11/15 08:34:55;;;;;;;;;3.00;1.00;;;;;;;;5054503;28;45579;-68
2023/11/15 08:37:20;;;;;;;;;1.00;1.00;;;;;;;;5050055;28;47448;-68
2023/11/15 08:39:46;;;;;;;;;4.00;1.00;;;;;;;;5051909;28;45457;-68
2023/11/15 08:42:11;;;;;;;;;4.33;2.00;;;;;;;;5055196;28;45422;-68
2023/11/15 08:44:38;;;;;;;;;1.67;1.00;;;;;;;;5054236;28;45501;-69
2023/11/15 08:47:03;;;;;;;;;3.00;1.67;;;;;;;;5047882;28;46586;-67
2023/11/15 08:49:28;;;;;;;;;3.00;2.00;;;;;;;;5046458;28;45642;-69
2023/11/15 08:51:54;;;;;;;;;4.67;0.33;;;;;;;;5051746;28;45541;-68
2023/11/15 08:54:19;;;;;;;;;15.67;13.00;;;;;;;;5046525;28;47097;-68
2023/11/15 08:56:45;;;;;;;;;7.00;3.00;;;;;;;;5051645;28;46302;-68
2023/11/15 08:59:19;;;;;;;;;3.00;2.00;;;;;;;;5054070;28;45378;-69
2023/11/15 09:01:44;;;;;;;;;3.00;2.00;;;;;;;;5047530;28;45524;-68
2023/11/15 09:04:12;;;;;;;;;1.67;1.33;;;;;;;;5055068;28;45519;-68
2023/11/15 09:06:37;;;;;;;;;2.67;1.00;;;;;;;;5049906;28;46458;-69
2023/11/15 09:09:04;;;;;;;;;3.33;1.00;;;;;;;;5052219;28;47547;-69
2023/11/15 09:11:29;;;;;;;;;4.33;0.00;;;;;;;;5048567;28;46780;-69
2023/11/15 09:13:55;;;;;;;;;3.67;2.00;;;;;;;;5048174;28;45370;-68
2023/11/15 09:16:21;;;;;;;;;4.00;2.00;;;;;;;;5051015;28;47391;-69
2023/11/15 09:18:48;;;;;;;;;2.67;1.00;;;;;;;;5049987;28;45408;-69
2023/11/15 09:21:14;;;;;;;;;3.00;1.00;;;;;;;;5051711;28;45522;-69
2023/11/15 09:23:39;;;;;;;;;3.67;1.67;;;;;;;;5049429;28;45579;-69
2023/11/15 09:26:08;;;;;;;;;1.00;1.00;;;;;;;;5050496;28;47314;-68
2023/11/15 09:28:34;;;;;;;;;5.00;2.00;;;;;;;;5050255;28;45555;-68
2023/11/15 09:31:00;;;;;;;;;2.00;0.33;;;;;;;;5047806;28;45368;-68
2023/11/15 09:33:26;;;;;;;;;4.00;0.00;;;;;;;;5050661;28;45522;-68
2023/11/15 09:35:52;;;;;;;;;3.00;1.00;;;;;;;;5053613;28;46571;-68
2023/11/15 09:38:17;;;;;;;;;4.00;1.00;;;;;;;;5047145;28;45647;-68
2023/11/15 09:40:42;;;;;;;;;5.00;2.00;;;;;;;;5050618;28;45380;-68
2023/11/15 09:43:07;;;;;;;;;1.33;1.00;;;;;;;;5049839;28;45601;-68
2023/11/15 09:45:35;;;;;;;;;3.00;0.67;;;;;;;;5049820;28;46561;-69
2023/11/15 09:48:02;;;;;;;;;7.00;0.33;;;;;;;;5052280;28;45434;-68
2023/11/15 09:50:31;;;;;;;;;1.33;1.33;;;;;;;;5048525;28;45698;-68
2023/11/15 09:53:02;;;;;;;;;1.00;1.00;;;;;;;;5046671;28;45643;-68
2023/11/15 09:55:28;;;;;;;;;3.67;0.00;;;;;;;;5044971;28;47612;-68
2023/11/15 09:57:53;;;;;;;;;3.67;2.00;;;;;;;;5049146;28;45763;-68
2023/11/15 10:00:21;;;;;;;;;3.00;0.00;;;;;;;;5050545;28;45579;-69
2023/11/15 10:02:51;;;;;;;;;6.00;1.33;;;;;;;;5049901;28;45580;-69
2023/11/15 10:05:22;;;;;;;;;5.00;2.00;;;;;;;;5042896;28;46429;-68
2023/11/15 10:07:48;;;;;;;;;0.67;0.33;;;;;;;;5051898;28;45655;-68
2023/11/15 10:10:21;;;;;;;;;4.33;1.00;;;;;;;;5049479;28;45573;-69
2023/11/15 10:12:48;;;;;;;;;2.67;2.00;;;;;;;;5050993;28;45997;-68
2023/11/15 10:15:14;;;;;;;;;5.67;1.00;;;;;;;;5048530;28;47701;-68
2023/11/15 10:17:40;;;;;;;;;6.00;1.00;;;;;;;;5047864;28;46133;-69
2023/11/15 10:20:18;;;;;;;;;3.00;1.00;;;;;;;;5045853;28;45757;-69
2023/11/15 10:22:44;;;;;;;;;2.00;1.00;;;;;;;;5052363;28;45608;-70
2023/11/15 10:25:09;;;;;;;;;4.00;1.00;;;;;;;;5045448;28;46556;-69
2023/11/15 10:27:35;;;;;;;;;4.33;1.00;;;;;;;;5049457;28;45427;-69
2023/11/15 10:30:05;;;;;;;;;4.33;2.33;;;;;;;;5051114;28;45461;-70
2023/11/15 10:32:30;;;;;;;;;6.00;2.00;;;;;;;;5051179;28;45615;-69
2023/11/15 10:34:57;;;;;;;;;4.00;2.00;;;;;;;;5049580;28;45746;-69
2023/11/15 10:37:23;;;;;;;;;4.00;2.67;;;;;;;;5054516;28;45362;-69
2023/11/15 10:39:48;;;;;;;;;7.00;2.33;;;;;;;;5053868;28;45607;-69
2023/11/15 10:42:14;;;;;;;;;2.33;1.00;;;;;;;;5051993;28;45440;-69
2023/11/15 10:44:41;;;;;;;;;3.00;1.67;;;;;;;;5049779;28;46340;-69
2023/11/15 10:47:07;;;;;;;;;2.67;0.00;;;;;;;;5046010;28;45391;-70
2023/11/15 10:49:36;;;;;;;;;6.00;1.33;;;;;;;;5054706;28;45387;-69
2023/11/15 10:52:01;;;;;;;;;4.67;1.00;;;;;;;;5046391;28;45544;-70
2023/11/15 10:54:27;;;;;;;;;6.67;2.00;;;;;;;;5046983;28;47403;-69
2023/11/15 10:56:53;;;;;;;;;1.00;1.00;;;;;;;;5045726;28;45312;-69
2023/11/15 10:59:19;;;;;;;;;4.33;1.00;;;;;;;;5047399;28;45382;-69
2023/11/15 11:01:45;;;;;;;;;1.00;1.00;;;;;;;;5046335;28;45644;-70
2023/11/15 11:04:12;;;;;;;;;0.33;0.33;;;;;;;;5050356;28;45712;-69
2023/11/15 11:06:58;;;;;;;;;3.33;0.00;;;;;;;;5047465;28;45520;-70
2023/11/15 11:09:30;;;;;;;;;2.00;1.00;;;;;;;;5054354;28;45378;-69
2023/11/15 11:12:03;;;;;;;;;4.33;1.00;;;;;;;;5053563;28;45450;-69
2023/11/15 11:14:30;;;;;;;;;3.33;0.00;;;;;;;;5053430;28;46739;-70
2023/11/15 11:16:56;;;;;;;;;5.33;0.33;;;;;;;;5052738;28;45500;-69
2023/11/15 11:19:22;;;;;;;;;2.00;1.00;;;;;;;;5057746;28;45979;-69
2023/11/15 11:24:34;;;;;;;;;0.67;0.67;;;;;;;;5046994;28;45875;-69
2023/11/15 11:27:12;;;;;;;;;2.00;1.00;;;;;;;;5056236;28;45482;-69
2023/11/15 11:29:49;;;;;;;;;4.00;1.00;;;;;;;;5044637;28;45622;-69
2023/11/15 11:32:18;;;;;;;;;5.00;1.00;;;;;;;;5051191;28;45351;-69
2023/11/15 11:35:22;;;;;;;;;1.00;1.00;;;;;;;;5054738;28;46333;-69
2023/11/15 11:37:53;;;;;;;;;2.33;1.00;;;;;;;;5033213;28;45705;-68
2023/11/15 11:40:31;;;;;;;;;2.00;2.00;;;;;;;;5054383;28;45391;-68
2023/11/15 11:43:11;;;;;;;;;3.33;1.00;;;;;;;;5055998;28;46347;-68
2023/11/15 11:45:37;;;;;;;;;3.33;1.00;;;;;;;;5057040;28;45707;-68
2023/11/15 11:48:02;;;;;;;;;4.67;3.00;;;;;;;;5052455;28;45425;-69
2023/11/15 11:50:27;;;;;;;;;1.00;1.00;;;;;;;;5053374;28;45475;-69
2023/11/15 11:52:56;;;;;;;;;0.00;0.00;;;;;;;;5050391;28;45516;-68
2023/11/15 11:55:25;;;;;;;;;0.33;0.33;;;;;;;;5049855;28;45853;-69
2023/11/15 11:57:51;;;;;;;;;2.33;1.00;;;;;;;;5052280;28;45492;-68
2023/11/15 12:00:18;;;;;;;;;1.00;1.00;;;;;;;;5053858;28;45445;-68
2023/11/15 12:02:45;;;;;;;;;2.00;0.00;;;;;;;;5058188;28;45613;-68
2023/11/15 12:05:11;;;;;;;;;3.00;1.00;;;;;;;;5052072;28;46186;-69
2023/11/15 12:07:43;;;;;;;;;3.00;2.00;;;;;;;;5051804;28;45419;-68
2023/11/15 12:10:13;;;;;;;;;4.67;2.00;;;;;;;;5054705;28;45520;-70
2023/11/15 12:12:39;;;;;;;;;0.67;0.67;;;;;;;;5057880;28;45371;-70
2023/11/15 12:15:15;;;;;;;;;4.33;1.00;;;;;;;;5053981;28;47373;-70
2023/11/15 12:17:41;;;;;;;;;1.67;0.00;;;;;;;;5049526;28;45475;-70
2023/11/15 12:20:10;;;;;;;;;2.00;0.00;;;;;;;;5056805;28;45468;-72
2023/11/15 12:22:43;;;;;;;;;1.00;1.00;;;;;;;;5048469;28;45589;-71
2023/11/15 12:25:09;;;;;;;;;2.00;0.00;;;;;;;;5052614;28;46708;-70
2023/11/15 12:27:35;;;;;;;;;1.00;0.00;;;;;;;;5051800;28;45330;-69
2023/11/15 12:30:02;;;;;;;;;1.67;0.67;;;;;;;;5048474;28;45458;-68
2023/11/15 12:32:28;;;;;;;;;2.00;0.33;;;;;;;;5050889;28;45428;-69
2023/11/15 12:34:54;;;;;;;;;2.67;1.00;;;;;;;;5047228;28;46293;-68
2023/11/15 12:37:19;;;;;;;;;1.00;0.00;;;;;;;;5050356;28;45425;-68
2023/11/15 12:39:45;;;;;;;;;0.33;0.33;;;;;;;;5050804;28;46887;-68
2023/11/15 12:42:10;;;;;;;;;2.00;1.00;;;;;;;;5050176;28;45460;-68
2023/11/15 12:44:44;;;;;;;;;0.00;0.00;;;;;;;;5049223;28;45689;-68
2023/11/15 12:47:09;;;;;;;;;0.00;0.00;;;;;;;;5051250;28;45497;-69
2023/11/15 12:49:34;;;;;;;;;1.00;0.00;;;;;;;;5053983;28;45908;-69
2023/11/15 12:52:00;;;;;;;;;2.00;0.00;;;;;;;;5054354;28;45492;-68
2023/11/15 12:54:25;;;;;;;;;2.00;0.67;;;;;;;;5052770;28;46896;-69
2023/11/15 12:57:08;;;;;;;;;1.00;0.00;;;;;;;;5048762;28;45649;-69
2023/11/15 12:59:33;;;;;;;;;0.00;0.00;;;;;;;;5049125;28;45440;-69
2023/11/15 13:01:59;;;;;;;;;2.00;1.00;;;;;;;;5047615;28;45447;-69
2023/11/15 13:04:24;;;;;;;;;2.00;2.00;;;;;;;;5050392;28;46482;-69
2023/11/15 13:06:49;;;;;;;;;1.00;0.00;;;;;;;;5054749;28;45437;-68
2023/11/15 13:09:16;;;;;;;;;0.00;0.00;;;;;;;;5052777;28;46665;-68
2023/11/15 13:11:42;;;;;;;;;4.00;1.00;;;;;;;;5054306;28;45444;-69
2023/11/15 13:14:08;;;;;;;;;2.00;1.00;;;;;;;;5053258;28;45804;-68
2023/11/15 13:16:33;;;;;;;;;3.33;0.00;;;;;;;;5054117;28;45458;-69
2023/11/15 13:18:59;;;;;;;;;0.00;0.00;;;;;;;;5052736;28;45472;-69
2023/11/15 13:21:25;;;;;;;;;0.00;0.00;;;;;;;;5048818;28;45589;-69
2023/11/15 13:23:53;;;;;;;;;0.00;0.00;;;;;;;;5050285;28;46677;-69
2023/11/15 13:26:19;;;;;;;;;1.33;0.33;;;;;;;;5053837;28;45484;-69
2023/11/15 13:28:47;;;;;;;;;0.00;0.00;;;;;;;;5055001;28;45414;-69
2023/11/15 13:31:13;;;;;;;;;4.00;0.67;;;;;;;;5049220;28;45465;-69
2023/11/15 13:33:38;;;;;;;;;0.00;0.00;;;;;;;;5045448;28;47328;-69
2023/11/15 13:36:05;;;;;;;;;0.00;0.00;;;;;;;;5052533;28;45692;-69
2023/11/15 13:38:31;;;;;;;;;2.00;0.00;;;;;;;;5048745;28;45462;-69
2023/11/15 13:40:56;;;;;;;;;3.00;0.00;;;;;;;;5051283;28;45339;-69
2023/11/15 13:43:22;;;;;;;;;2.00;0.00;;;;;;;;5051475;28;47294;-69
2023/11/15 13:45:47;;;;;;;;;1.00;1.00;;;;;;;;5052929;28;45642;-69
2023/11/15 13:48:13;;;;;;;;;2.67;2.00;;;;;;;;5047392;28;45635;-69
2023/11/15 13:50:39;;;;;;;;;1.67;1.00;;;;;;;;5042831;28;45549;-69
2023/11/15 13:53:04;;;;;;;;;3.00;1.00;;;;;;;;5045944;28;47548;-69
2023/11/15 13:55:29;;;;;;;;;0.33;0.33;;;;;;;;5048207;28;45519;-69
2023/11/15 13:57:54;;;;;;;;;3.33;1.00;;;;;;;;5053147;28;45426;-69
2023/11/15 14:00:23;;;;;;;;;2.00;0.67;;;;;;;;5052964;28;45578;-69
2023/11/15 14:02:49;;;;;;;;;0.00;0.00;;;;;;;;5050999;28;46589;-69
2023/11/15 14:05:17;;;;;;;;;2.00;1.00;;;;;;;;5051148;28;45458;-68
2023/11/15 14:07:43;;;;;;;;;1.33;1.00;;;;;;;;5053582;28;45561;-68
2023/11/15 14:10:08;;;;;;;;;2.33;0.00;;;;;;;;5050427;28;45738;-69
2023/11/15 14:12:33;;;;;;;;;2.33;0.00;;;;;;;;5045806;28;46352;-69
2023/11/15 14:14:59;;;;;;;;;2.00;0.00;;;;;;;;5052662;28;45589;-68
2023/11/15 14:17:24;;;;;;;;;1.00;0.00;;;;;;;;5048102;28;45567;-68
2023/11/15 14:19:49;;;;;;;;;1.33;1.33;;;;;;;;5051966;28;45598;-68
2023/11/15 14:22:15;;;;;;;;;1.33;0.00;;;;;;;;5051918;28;46383;-68
2023/11/15 14:24:40;;;;;;;;;3.00;0.00;;;;;;;;5053987;28;45558;-68
2023/11/15 14:27:05;;;;;;;;;2.00;1.00;;;;;;;;5050886;28;45556;-68
2023/11/15 14:29:31;;;;;;;;;2.67;1.00;;;;;;;;5049086;28;45955;-68
2023/11/15 14:31:57;;;;;;;;;0.00;0.00;;;;;;;;5049957;28;47447;-68
2023/11/15 14:34:22;;;;;;;;;2.00;0.00;;;;;;;;5050049;28;45472;-68
2023/11/15 14:36:48;;;;;;;;;0.00;0.00;;;;;;;;5051152;28;45740;-68
2023/11/15 14:39:14;;;;;;;;;2.00;0.00;;;;;;;;5048975;28;45444;-68
2023/11/15 14:41:40;;;;;;;;;1.00;0.00;;;;;;;;5046533;28;47556;-68